sensor_id;sensor_type;location;lat;lon;timestamp;P1;durP1;ratioP1;P2;durP2;ratioP2
15748;SDS011;7976;52.526;13.326;2024-02-21T00:01:21;19.60;;;4.43;;
15748;SDS011;7976;52.526;13.326;2024-02-21T00:03:51;19.95;;;5.45;;
15748;SDS011;7976;52.526;13.326;2024-02-21T00:06:19;21.90;;;4.70;;
15748;SDS011;7976;52.526;13.326;2024-02-21T00:08:47;16.75;;;4.38;;
15748;SDS011;7976;52.526;13.326;2024-02-21T00:11:17;16.05;;;4.80;;
15748;SDS011;7976;52.526;13.326;2024-02-21T00:13:46;16.73;;;4.85;;
15748;SDS011;7976;52.526;13.326;2024-02-21T00:16:16;18.33;;;4.30;;
15748;SDS011;7976;52.526;13.326;2024-02-21T00:18:44;19.95;;;4.22;;
15748;SDS011;7976;52.526;13.326;2024-02-21T00:21:14;18.63;;;4.65;;
15748;SDS011;7976;52.526;13.326;2024-02-21T00:23:47;17.77;;;4.88;;
15748;SDS011;7976;52.526;13.326;2024-02-21T00:26:18;16.45;;;4.72;;
15748;SDS011;7976;52.526;13.326;2024-02-21T00:28:50;17.92;;;4.13;;
15748;SDS011;7976;52.526;13.326;2024-02-21T00:31:17;17.15;;;4.30;;
15748;SDS011;7976;52.526;13.326;2024-02-21T00:33:48;20.48;;;4.25;;
15748;SDS011;7976;52.526;13.326;2024-02-21T00:36:15;13.57;;;4.30;;
15748;SDS011;7976;52.526;13.326;2024-02-21T00:38:42;19.63;;;4.15;;
15748;SDS011;7976;52.526;13.326;2024-02-21T00:41:13;16.17;;;4.30;;
15748;SDS011;7976;52.526;13.326;2024-02-21T00:43:40;16.42;;;3.92;;
15748;SDS011;7976;52.526;13.326;2024-02-21T00:46:07;16.63;;;4.10;;
15748;SDS011;7976;52.526;13.326;2024-02-21T00:48:35;19.90;;;4.22;;
15748;SDS011;7976;52.526;13.326;2024-02-21T00:51:02;13.00;;;3.92;;
15748;SDS011;7976;52.526;13.326;2024-02-21T00:53:30;18.95;;;4.40;;
15748;SDS011;7976;52.526;13.326;2024-02-21T00:55:57;17.83;;;4.63;;
15748;SDS011;7976;52.526;13.326;2024-02-21T00:58:29;18.08;;;4.60;;
15748;SDS011;7976;52.526;13.326;2024-02-21T01:01:00;18.45;;;4.43;;
15748;SDS011;7976;52.526;13.326;2024-02-21T01:03:31;19.48;;;3.80;;
15748;SDS011;7976;52.526;13.326;2024-02-21T01:05:59;17.35;;;3.95;;
15748;SDS011;7976;52.526;13.326;2024-02-21T01:08:26;16.30;;;3.47;;
15748;SDS011;7976;52.526;13.326;2024-02-21T01:10:55;16.92;;;4.20;;
15748;SDS011;7976;52.526;13.326;2024-02-21T01:13:22;13.35;;;3.88;;
15748;SDS011;7976;52.526;13.326;2024-02-21T01:15:51;11.15;;;3.47;;
15748;SDS011;7976;52.526;13.326;2024-02-21T01:18:25;18.63;;;4.30;;
15748;SDS011;7976;52.526;13.326;2024-02-21T01:20:53;15.90;;;3.97;;
15748;SDS011;7976;52.526;13.326;2024-02-21T01:23:20;17.85;;;3.80;;
15748;SDS011;7976;52.526;13.326;2024-02-21T01:25:47;14.05;;;3.45;;
15748;SDS011;7976;52.526;13.326;2024-02-21T01:28:15;17.98;;;4.20;;
15748;SDS011;7976;52.526;13.326;2024-02-21T01:30:42;18.27;;;4.10;;
15748;SDS011;7976;52.526;13.326;2024-02-21T01:33:10;14.65;;;3.67;;
15748;SDS011;7976;52.526;13.326;2024-02-21T01:35:38;17.40;;;4.05;;
15748;SDS011;7976;52.526;13.326;2024-02-21T01:38:05;14.82;;;3.28;;
15748;SDS011;7976;52.526;13.326;2024-02-21T01:40:34;12.30;;;3.55;;
15748;SDS011;7976;52.526;13.326;2024-02-21T01:43:01;11.38;;;3.63;;
15748;SDS011;7976;52.526;13.326;2024-02-21T01:45:30;16.63;;;3.90;;
15748;SDS011;7976;52.526;13.326;2024-02-21T01:47:57;15.20;;;4.38;;
15748;SDS011;7976;52.526;13.326;2024-02-21T01:50:26;14.82;;;4.18;;
15748;SDS011;7976;52.526;13.326;2024-02-21T01:52:55;15.50;;;3.50;;
15748;SDS011;7976;52.526;13.326;2024-02-21T01:55:22;15.32;;;4.03;;
15748;SDS011;7976;52.526;13.326;2024-02-21T01:57:55;17.50;;;3.58;;
15748;SDS011;7976;52.526;13.326;2024-02-21T02:00:23;15.10;;;3.55;;
15748;SDS011;7976;52.526;13.326;2024-02-21T02:02:52;14.82;;;4.05;;
15748;SDS011;7976;52.526;13.326;2024-02-21T02:05:21;16.85;;;3.63;;
15748;SDS011;7976;52.526;13.326;2024-02-21T02:07:53;16.38;;;3.60;;
15748;SDS011;7976;52.526;13.326;2024-02-21T02:10:22;17.15;;;3.85;;
15748;SDS011;7976;52.526;13.326;2024-02-21T02:12:49;11.20;;;3.13;;
15748;SDS011;7976;52.526;13.326;2024-02-21T02:15:15;13.82;;;3.45;;
15748;SDS011;7976;52.526;13.326;2024-02-21T02:17:42;11.52;;;3.60;;
15748;SDS011;7976;52.526;13.326;2024-02-21T02:20:09;14.73;;;4.28;;
15748;SDS011;7976;52.526;13.326;2024-02-21T02:22:38;26.70;;;4.00;;
15748;SDS011;7976;52.526;13.326;2024-02-21T02:25:10;15.40;;;3.83;;
15748;SDS011;7976;52.526;13.326;2024-02-21T02:27:41;11.52;;;4.00;;
15748;SDS011;7976;52.526;13.326;2024-02-21T02:30:10;18.75;;;3.65;;
15748;SDS011;7976;52.526;13.326;2024-02-21T02:32:38;15.80;;;4.15;;
15748;SDS011;7976;52.526;13.326;2024-02-21T02:35:05;18.63;;;3.67;;
15748;SDS011;7976;52.526;13.326;2024-02-21T02:37:32;13.43;;;3.55;;
15748;SDS011;7976;52.526;13.326;2024-02-21T02:39:59;14.35;;;3.83;;
15748;SDS011;7976;52.526;13.326;2024-02-21T02:42:27;18.88;;;3.80;;
15748;SDS011;7976;52.526;13.326;2024-02-21T02:44:54;15.45;;;4.00;;
15748;SDS011;7976;52.526;13.326;2024-02-21T02:47:22;16.48;;;3.78;;
15748;SDS011;7976;52.526;13.326;2024-02-21T02:49:49;16.25;;;4.03;;
15748;SDS011;7976;52.526;13.326;2024-02-21T02:52:16;14.43;;;3.60;;
15748;SDS011;7976;52.526;13.326;2024-02-21T02:54:43;20.83;;;4.28;;
15748;SDS011;7976;52.526;13.326;2024-02-21T02:57:09;17.67;;;4.07;;
15748;SDS011;7976;52.526;13.326;2024-02-21T02:59:37;16.70;;;4.00;;
15748;SDS011;7976;52.526;13.326;2024-02-21T03:02:04;13.52;;;3.53;;
15748;SDS011;7976;52.526;13.326;2024-02-21T03:04:31;17.60;;;4.13;;
15748;SDS011;7976;52.526;13.326;2024-02-21T03:06:58;19.30;;;5.20;;
15748;SDS011;7976;52.526;13.326;2024-02-21T03:09:25;19.08;;;4.47;;
15748;SDS011;7976;52.526;13.326;2024-02-21T03:11:51;18.58;;;4.43;;
15748;SDS011;7976;52.526;13.326;2024-02-21T03:14:22;15.30;;;4.18;;
15748;SDS011;7976;52.526;13.326;2024-02-21T03:16:52;16.25;;;4.00;;
15748;SDS011;7976;52.526;13.326;2024-02-21T03:19:19;23.95;;;4.95;;
15748;SDS011;7976;52.526;13.326;2024-02-21T03:21:45;21.75;;;4.93;;
15748;SDS011;7976;52.526;13.326;2024-02-21T03:24:12;14.52;;;4.18;;
15748;SDS011;7976;52.526;13.326;2024-02-21T03:26:39;22.73;;;4.88;;
15748;SDS011;7976;52.526;13.326;2024-02-21T03:29:06;18.33;;;4.72;;
15748;SDS011;7976;52.526;13.326;2024-02-21T03:31:33;19.00;;;5.38;;
15748;SDS011;7976;52.526;13.326;2024-02-21T03:34:02;26.40;;;4.97;;
15748;SDS011;7976;52.526;13.326;2024-02-21T03:36:29;17.77;;;4.45;;
15748;SDS011;7976;52.526;13.326;2024-02-21T03:38:55;21.40;;;5.40;;
15748;SDS011;7976;52.526;13.326;2024-02-21T03:41:22;16.55;;;4.95;;
15748;SDS011;7976;52.526;13.326;2024-02-21T03:43:49;18.58;;;4.47;;
15748;SDS011;7976;52.526;13.326;2024-02-21T03:46:16;24.50;;;6.07;;
15748;SDS011;7976;52.526;13.326;2024-02-21T03:48:43;16.33;;;4.75;;
15748;SDS011;7976;52.526;13.326;2024-02-21T03:51:12;19.45;;;4.75;;
15748;SDS011;7976;52.526;13.326;2024-02-21T03:53:40;21.85;;;5.38;;
15748;SDS011;7976;52.526;13.326;2024-02-21T03:56:07;14.23;;;4.93;;
15748;SDS011;7976;52.526;13.326;2024-02-21T03:58:33;16.52;;;5.50;;
15748;SDS011;7976;52.526;13.326;2024-02-21T04:01:00;19.95;;;5.57;;
15748;SDS011;7976;52.526;13.326;2024-02-21T04:03:28;17.00;;;5.28;;
15748;SDS011;7976;52.526;13.326;2024-02-21T04:05:56;16.13;;;4.85;;
15748;SDS011;7976;52.526;13.326;2024-02-21T04:08:24;17.00;;;5.20;;
15748;SDS011;7976;52.526;13.326;2024-02-21T04:10:51;18.77;;;5.95;;
15748;SDS011;7976;52.526;13.326;2024-02-21T04:13:18;18.92;;;5.00;;
15748;SDS011;7976;52.526;13.326;2024-02-21T04:15:45;16.92;;;5.63;;
15748;SDS011;7976;52.526;13.326;2024-02-21T04:18:13;18.58;;;5.53;;
15748;SDS011;7976;52.526;13.326;2024-02-21T04:20:41;24.10;;;5.70;;
15748;SDS011;7976;52.526;13.326;2024-02-21T04:23:08;21.38;;;5.20;;
15748;SDS011;7976;52.526;13.326;2024-02-21T04:25:37;23.42;;;5.65;;
15748;SDS011;7976;52.526;13.326;2024-02-21T04:28:04;24.52;;;5.93;;
15748;SDS011;7976;52.526;13.326;2024-02-21T04:30:32;23.17;;;5.97;;
15748;SDS011;7976;52.526;13.326;2024-02-21T04:32:59;19.83;;;5.53;;
15748;SDS011;7976;52.526;13.326;2024-02-21T04:35:26;18.15;;;5.05;;
15748;SDS011;7976;52.526;13.326;2024-02-21T04:37:53;20.42;;;5.50;;
15748;SDS011;7976;52.526;13.326;2024-02-21T04:40:21;15.35;;;5.63;;
15748;SDS011;7976;52.526;13.326;2024-02-21T04:42:50;16.95;;;5.30;;
15748;SDS011;7976;52.526;13.326;2024-02-21T04:45:17;22.80;;;6.63;;
15748;SDS011;7976;52.526;13.326;2024-02-21T04:47:44;18.15;;;5.28;;
15748;SDS011;7976;52.526;13.326;2024-02-21T04:50:11;21.40;;;6.35;;
15748;SDS011;7976;52.526;13.326;2024-02-21T04:52:38;17.90;;;5.53;;
15748;SDS011;7976;52.526;13.326;2024-02-21T04:55:06;23.95;;;6.03;;
15748;SDS011;7976;52.526;13.326;2024-02-21T04:57:33;21.40;;;6.07;;
15748;SDS011;7976;52.526;13.326;2024-02-21T05:00:01;18.15;;;5.50;;
15748;SDS011;7976;52.526;13.326;2024-02-21T05:02:29;21.63;;;6.53;;
15748;SDS011;7976;52.526;13.326;2024-02-21T05:04:56;18.35;;;5.82;;
15748;SDS011;7976;52.526;13.326;2024-02-21T05:07:23;24.70;;;5.97;;
15748;SDS011;7976;52.526;13.326;2024-02-21T05:09:50;22.77;;;5.82;;
15748;SDS011;7976;52.526;13.326;2024-02-21T05:12:18;23.67;;;5.82;;
15748;SDS011;7976;52.526;13.326;2024-02-21T05:14:45;23.65;;;5.40;;
15748;SDS011;7976;52.526;13.326;2024-02-21T05:17:14;21.90;;;5.93;;
15748;SDS011;7976;52.526;13.326;2024-02-21T05:19:41;20.10;;;6.07;;
15748;SDS011;7976;52.526;13.326;2024-02-21T05:22:08;21.08;;;5.75;;
15748;SDS011;7976;52.526;13.326;2024-02-21T05:24:35;18.33;;;5.40;;
15748;SDS011;7976;52.526;13.326;2024-02-21T05:27:02;16.67;;;5.50;;
15748;SDS011;7976;52.526;13.326;2024-02-21T05:29:29;22.45;;;5.85;;
15748;SDS011;7976;52.526;13.326;2024-02-21T05:31:56;20.75;;;5.97;;
15748;SDS011;7976;52.526;13.326;2024-02-21T05:34:25;21.15;;;6.20;;
15748;SDS011;7976;52.526;13.326;2024-02-21T05:36:52;20.27;;;5.78;;
15748;SDS011;7976;52.526;13.326;2024-02-21T05:39:19;18.02;;;5.68;;
15748;SDS011;7976;52.526;13.326;2024-02-21T05:41:48;18.00;;;5.82;;
15748;SDS011;7976;52.526;13.326;2024-02-21T05:44:15;20.98;;;5.60;;
15748;SDS011;7976;52.526;13.326;2024-02-21T05:46:42;18.50;;;5.40;;
15748;SDS011;7976;52.526;13.326;2024-02-21T05:49:10;18.42;;;6.43;;
15748;SDS011;7976;52.526;13.326;2024-02-21T05:51:38;28.80;;;6.22;;
15748;SDS011;7976;52.526;13.326;2024-02-21T05:54:05;22.42;;;6.30;;
15748;SDS011;7976;52.526;13.326;2024-02-21T05:56:32;19.13;;;5.47;;
15748;SDS011;7976;52.526;13.326;2024-02-21T05:58:59;20.45;;;6.10;;
15748;SDS011;7976;52.526;13.326;2024-02-21T06:01:26;22.60;;;6.18;;
15748;SDS011;7976;52.526;13.326;2024-02-21T06:03:53;25.35;;;6.55;;
15748;SDS011;7976;52.526;13.326;2024-02-21T06:06:20;22.20;;;5.97;;
15748;SDS011;7976;52.526;13.326;2024-02-21T06:08:49;24.08;;;6.47;;
15748;SDS011;7976;52.526;13.326;2024-02-21T06:11:16;25.67;;;6.68;;
15748;SDS011;7976;52.526;13.326;2024-02-21T06:13:43;25.13;;;6.57;;
15748;SDS011;7976;52.526;13.326;2024-02-21T06:16:10;20.02;;;6.18;;
15748;SDS011;7976;52.526;13.326;2024-02-21T06:18:36;22.48;;;6.40;;
15748;SDS011;7976;52.526;13.326;2024-02-21T06:21:03;19.27;;;6.38;;
15748;SDS011;7976;52.526;13.326;2024-02-21T06:23:31;21.30;;;6.75;;
15748;SDS011;7976;52.526;13.326;2024-02-21T06:25:59;22.40;;;6.47;;
15748;SDS011;7976;52.526;13.326;2024-02-21T06:28:26;23.30;;;6.45;;
15748;SDS011;7976;52.526;13.326;2024-02-21T06:30:53;28.00;;;6.53;;
15748;SDS011;7976;52.526;13.326;2024-02-21T06:33:19;20.60;;;6.03;;
15748;SDS011;7976;52.526;13.326;2024-02-21T06:35:50;20.42;;;6.82;;
15748;SDS011;7976;52.526;13.326;2024-02-21T06:38:18;18.58;;;6.80;;
15748;SDS011;7976;52.526;13.326;2024-02-21T06:40:46;20.40;;;6.70;;
15748;SDS011;7976;52.526;13.326;2024-02-21T06:43:17;21.02;;;6.43;;
15748;SDS011;7976;52.526;13.326;2024-02-21T06:45:46;18.83;;;6.10;;
15748;SDS011;7976;52.526;13.326;2024-02-21T06:48:16;16.67;;;5.70;;
15748;SDS011;7976;52.526;13.326;2024-02-21T06:50:44;19.73;;;6.22;;
15748;SDS011;7976;52.526;13.326;2024-02-21T06:53:11;22.63;;;6.85;;
15748;SDS011;7976;52.526;13.326;2024-02-21T06:55:38;19.55;;;6.65;;
15748;SDS011;7976;52.526;13.326;2024-02-21T06:58:05;23.13;;;6.72;;
15748;SDS011;7976;52.526;13.326;2024-02-21T07:00:37;24.42;;;7.40;;
15748;SDS011;7976;52.526;13.326;2024-02-21T07:03:05;21.65;;;7.10;;
15748;SDS011;7976;52.526;13.326;2024-02-21T07:05:32;21.75;;;7.07;;
15748;SDS011;7976;52.526;13.326;2024-02-21T07:08:00;24.65;;;6.72;;
15748;SDS011;7976;52.526;13.326;2024-02-21T07:10:28;22.35;;;7.45;;
15748;SDS011;7976;52.526;13.326;2024-02-21T07:12:55;21.33;;;7.28;;
15748;SDS011;7976;52.526;13.326;2024-02-21T07:15:22;21.83;;;6.75;;
15748;SDS011;7976;52.526;13.326;2024-02-21T07:17:53;22.15;;;6.80;;
15748;SDS011;7976;52.526;13.326;2024-02-21T07:36:28;21.05;;;6.65;;
15748;SDS011;7976;52.526;13.326;2024-02-21T07:38:56;19.02;;;5.72;;
15748;SDS011;7976;52.526;13.326;2024-02-21T07:41:23;15.00;;;5.47;;
15748;SDS011;7976;52.526;13.326;2024-02-21T07:43:51;20.60;;;6.07;;
15748;SDS011;7976;52.526;13.326;2024-02-21T07:46:18;22.65;;;6.13;;
15748;SDS011;7976;52.526;13.326;2024-02-21T07:48:45;16.83;;;5.72;;
15748;SDS011;7976;52.526;13.326;2024-02-21T07:51:12;18.33;;;5.97;;
15748;SDS011;7976;52.526;13.326;2024-02-21T07:53:40;19.48;;;5.68;;
15748;SDS011;7976;52.526;13.326;2024-02-21T07:56:09;19.80;;;6.05;;
15748;SDS011;7976;52.526;13.326;2024-02-21T07:58:36;17.45;;;6.00;;
15748;SDS011;7976;52.526;13.326;2024-02-21T08:01:03;17.50;;;5.70;;
15748;SDS011;7976;52.526;13.326;2024-02-21T08:03:30;19.00;;;6.28;;
15748;SDS011;7976;52.526;13.326;2024-02-21T08:05:57;22.90;;;5.85;;
15748;SDS011;7976;52.526;13.326;2024-02-21T08:08:24;14.45;;;5.65;;
15748;SDS011;7976;52.526;13.326;2024-02-21T08:10:52;17.27;;;5.22;;
15748;SDS011;7976;52.526;13.326;2024-02-21T08:13:19;21.58;;;6.03;;
15748;SDS011;7976;52.526;13.326;2024-02-21T08:15:46;16.20;;;5.63;;
15748;SDS011;7976;52.526;13.326;2024-02-21T08:18:13;21.98;;;5.63;;
15748;SDS011;7976;52.526;13.326;2024-02-21T08:20:40;19.23;;;5.57;;
15748;SDS011;7976;52.526;13.326;2024-02-21T08:23:07;18.35;;;5.88;;
15748;SDS011;7976;52.526;13.326;2024-02-21T08:25:34;20.60;;;6.80;;
15748;SDS011;7976;52.526;13.326;2024-02-21T08:28:02;18.95;;;6.18;;
15748;SDS011;7976;52.526;13.326;2024-02-21T08:30:31;17.77;;;6.10;;
15748;SDS011;7976;52.526;13.326;2024-02-21T08:32:57;16.73;;;5.90;;
15748;SDS011;7976;52.526;13.326;2024-02-21T08:35:24;19.88;;;5.55;;
15748;SDS011;7976;52.526;13.326;2024-02-21T08:37:51;20.00;;;6.05;;
15748;SDS011;7976;52.526;13.326;2024-02-21T08:40:18;17.95;;;6.60;;
15748;SDS011;7976;52.526;13.326;2024-02-21T08:42:46;15.57;;;5.90;;
15748;SDS011;7976;52.526;13.326;2024-02-21T08:45:15;16.25;;;6.18;;
15748;SDS011;7976;52.526;13.326;2024-02-21T08:47:42;19.38;;;6.20;;
15748;SDS011;7976;52.526;13.326;2024-02-21T08:50:10;21.27;;;5.97;;
15748;SDS011;7976;52.526;13.326;2024-02-21T08:52:37;18.23;;;5.68;;
15748;SDS011;7976;52.526;13.326;2024-02-21T08:55:04;20.00;;;6.47;;
15748;SDS011;7976;52.526;13.326;2024-02-21T08:57:32;19.50;;;6.05;;
15748;SDS011;7976;52.526;13.326;2024-02-21T09:00:03;20.65;;;6.13;;
15748;SDS011;7976;52.526;13.326;2024-02-21T09:02:37;19.00;;;5.90;;
15748;SDS011;7976;52.526;13.326;2024-02-21T09:05:08;18.25;;;6.30;;
15748;SDS011;7976;52.526;13.326;2024-02-21T09:07:34;16.30;;;6.20;;
15748;SDS011;7976;52.526;13.326;2024-02-21T09:10:01;18.60;;;6.35;;
15748;SDS011;7976;52.526;13.326;2024-02-21T09:12:28;17.48;;;6.32;;
15748;SDS011;7976;52.526;13.326;2024-02-21T09:14:56;15.85;;;6.22;;
15748;SDS011;7976;52.526;13.326;2024-02-21T09:17:23;20.25;;;6.68;;
15748;SDS011;7976;52.526;13.326;2024-02-21T09:19:51;16.75;;;6.07;;
15748;SDS011;7976;52.526;13.326;2024-02-21T09:22:20;25.23;;;8.27;;
15748;SDS011;7976;52.526;13.326;2024-02-21T09:24:46;22.52;;;8.27;;
15748;SDS011;7976;52.526;13.326;2024-02-21T09:27:13;18.52;;;7.07;;
15748;SDS011;7976;52.526;13.326;2024-02-21T09:29:40;20.70;;;7.40;;
15748;SDS011;7976;52.526;13.326;2024-02-21T09:32:07;19.83;;;6.45;;
15748;SDS011;7976;52.526;13.326;2024-02-21T09:34:34;20.63;;;7.40;;
15748;SDS011;7976;52.526;13.326;2024-02-21T09:37:02;17.55;;;6.97;;
15748;SDS011;7976;52.526;13.326;2024-02-21T09:39:29;18.75;;;6.47;;
15748;SDS011;7976;52.526;13.326;2024-02-21T09:41:58;22.55;;;7.25;;
15748;SDS011;7976;52.526;13.326;2024-02-21T09:44:33;16.13;;;6.00;;
15748;SDS011;7976;52.526;13.326;2024-02-21T09:47:04;17.45;;;6.75;;
15748;SDS011;7976;52.526;13.326;2024-02-21T09:49:38;21.13;;;7.35;;
15748;SDS011;7976;52.526;13.326;2024-02-21T09:52:11;18.35;;;6.50;;
15748;SDS011;7976;52.526;13.326;2024-02-21T09:54:41;19.50;;;6.85;;
15748;SDS011;7976;52.526;13.326;2024-02-21T09:57:09;14.90;;;6.20;;
15748;SDS011;7976;52.526;13.326;2024-02-21T09:59:37;22.65;;;7.05;;
15748;SDS011;7976;52.526;13.326;2024-02-21T10:02:04;20.33;;;6.30;;
15748;SDS011;7976;52.526;13.326;2024-02-21T10:04:31;18.27;;;6.30;;
15748;SDS011;7976;52.526;13.326;2024-02-21T10:07:01;18.40;;;6.47;;
15748;SDS011;7976;52.526;13.326;2024-02-21T10:09:32;16.27;;;6.78;;
15748;SDS011;7976;52.526;13.326;2024-02-21T10:12:07;19.50;;;6.50;;
15748;SDS011;7976;52.526;13.326;2024-02-21T10:14:35;22.13;;;7.13;;
15748;SDS011;7976;52.526;13.326;2024-02-21T10:17:05;28.45;;;11.68;;
15748;SDS011;7976;52.526;13.326;2024-02-21T10:19:34;19.30;;;7.13;;
15748;SDS011;7976;52.526;13.326;2024-02-21T10:22:01;18.33;;;7.13;;
15748;SDS011;7976;52.526;13.326;2024-02-21T10:24:30;20.10;;;6.80;;
15748;SDS011;7976;52.526;13.326;2024-02-21T10:26:59;19.98;;;6.22;;
15748;SDS011;7976;52.526;13.326;2024-02-21T10:29:29;18.00;;;6.90;;
15748;SDS011;7976;52.526;13.326;2024-02-21T10:32:06;18.90;;;6.65;;
15748;SDS011;7976;52.526;13.326;2024-02-21T10:34:34;16.45;;;5.65;;
15748;SDS011;7976;52.526;13.326;2024-02-21T10:37:02;17.13;;;5.68;;
15748;SDS011;7976;52.526;13.326;2024-02-21T10:39:29;17.63;;;6.53;;
15748;SDS011;7976;52.526;13.326;2024-02-21T10:41:59;17.75;;;5.85;;
15748;SDS011;7976;52.526;13.326;2024-02-21T10:44:29;17.05;;;6.13;;
15748;SDS011;7976;52.526;13.326;2024-02-21T10:46:57;18.13;;;6.20;;
15748;SDS011;7976;52.526;13.326;2024-02-21T10:49:26;19.13;;;6.50;;
15748;SDS011;7976;52.526;13.326;2024-02-21T10:51:54;16.30;;;6.03;;
15748;SDS011;7976;52.526;13.326;2024-02-21T10:54:39;16.77;;;6.18;;
15748;SDS011;7976;52.526;13.326;2024-02-21T10:57:11;17.70;;;6.43;;
15748;SDS011;7976;52.526;13.326;2024-02-21T10:59:40;17.85;;;6.25;;
15748;SDS011;7976;52.526;13.326;2024-02-21T11:02:07;17.20;;;5.50;;
15748;SDS011;7976;52.526;13.326;2024-02-21T11:04:34;17.83;;;5.55;;
15748;SDS011;7976;52.526;13.326;2024-02-21T11:07:03;15.50;;;6.18;;
15748;SDS011;7976;52.526;13.326;2024-02-21T11:09:33;16.85;;;5.85;;
15748;SDS011;7976;52.526;13.326;2024-02-21T11:12:02;15.10;;;5.43;;
15748;SDS011;7976;52.526;13.326;2024-02-21T11:14:30;14.15;;;5.70;;
15748;SDS011;7976;52.526;13.326;2024-02-21T11:17:00;19.15;;;5.55;;
15748;SDS011;7976;52.526;13.326;2024-02-21T11:19:29;19.67;;;6.45;;
15748;SDS011;7976;52.526;13.326;2024-02-21T11:21:56;14.43;;;5.13;;
15748;SDS011;7976;52.526;13.326;2024-02-21T11:24:26;17.35;;;5.53;;
15748;SDS011;7976;52.526;13.326;2024-02-21T11:26:56;17.85;;;5.53;;
15748;SDS011;7976;52.526;13.326;2024-02-21T11:29:39;15.07;;;5.32;;
15748;SDS011;7976;52.526;13.326;2024-02-21T11:32:09;13.60;;;4.90;;
15748;SDS011;7976;52.526;13.326;2024-02-21T11:34:37;18.58;;;5.68;;
15748;SDS011;7976;52.526;13.326;2024-02-21T11:37:12;12.63;;;4.60;;
15748;SDS011;7976;52.526;13.326;2024-02-21T11:39:41;12.90;;;4.88;;
15748;SDS011;7976;52.526;13.326;2024-02-21T11:42:10;13.00;;;5.10;;
15748;SDS011;7976;52.526;13.326;2024-02-21T11:44:38;14.65;;;4.32;;
15748;SDS011;7976;52.526;13.326;2024-02-21T11:47:07;16.85;;;4.43;;
15748;SDS011;7976;52.526;13.326;2024-02-21T11:49:36;11.43;;;4.20;;
15748;SDS011;7976;52.526;13.326;2024-02-21T11:52:05;14.43;;;4.70;;
15748;SDS011;7976;52.526;13.326;2024-02-21T11:54:32;12.40;;;4.40;;
15748;SDS011;7976;52.526;13.326;2024-02-21T11:57:00;12.05;;;4.55;;
15748;SDS011;7976;52.526;13.326;2024-02-21T11:59:30;11.98;;;4.20;;
15748;SDS011;7976;52.526;13.326;2024-02-21T12:01:58;13.48;;;4.72;;
15748;SDS011;7976;52.526;13.326;2024-02-21T12:04:28;11.48;;;4.30;;
15748;SDS011;7976;52.526;13.326;2024-02-21T12:06:56;12.90;;;4.05;;
15748;SDS011;7976;52.526;13.326;2024-02-21T12:09:23;12.13;;;4.60;;
15748;SDS011;7976;52.526;13.326;2024-02-21T12:11:57;10.68;;;3.92;;
15748;SDS011;7976;52.526;13.326;2024-02-21T12:14:25;11.68;;;4.25;;
15748;SDS011;7976;52.526;13.326;2024-02-21T12:16:56;14.18;;;4.75;;
15748;SDS011;7976;52.526;13.326;2024-02-21T12:19:23;11.25;;;4.00;;
15748;SDS011;7976;52.526;13.326;2024-02-21T12:21:50;14.00;;;4.20;;
15748;SDS011;7976;52.526;13.326;2024-02-21T12:24:21;11.90;;;3.80;;
15748;SDS011;7976;52.526;13.326;2024-02-21T12:26:49;13.13;;;4.45;;
15748;SDS011;7976;52.526;13.326;2024-02-21T12:29:17;12.27;;;3.75;;
15748;SDS011;7976;52.526;13.326;2024-02-21T12:31:44;12.20;;;4.10;;
15748;SDS011;7976;52.526;13.326;2024-02-21T12:34:12;11.05;;;4.15;;
15748;SDS011;7976;52.526;13.326;2024-02-21T12:36:40;12.07;;;3.85;;
15748;SDS011;7976;52.526;13.326;2024-02-21T12:39:08;10.85;;;3.92;;
15748;SDS011;7976;52.526;13.326;2024-02-21T12:41:36;14.63;;;4.25;;
15748;SDS011;7976;52.526;13.326;2024-02-21T12:44:04;13.98;;;3.97;;
15748;SDS011;7976;52.526;13.326;2024-02-21T12:46:32;9.27;;;3.63;;
15748;SDS011;7976;52.526;13.326;2024-02-21T12:48:59;10.30;;;3.38;;
15748;SDS011;7976;52.526;13.326;2024-02-21T12:51:27;10.50;;;3.38;;
15748;SDS011;7976;52.526;13.326;2024-02-21T12:53:54;10.02;;;3.38;;
15748;SDS011;7976;52.526;13.326;2024-02-21T12:56:21;11.88;;;3.28;;
15748;SDS011;7976;52.526;13.326;2024-02-21T12:58:49;9.82;;;3.22;;
15748;SDS011;7976;52.526;13.326;2024-02-21T13:01:16;11.95;;;3.63;;
15748;SDS011;7976;52.526;13.326;2024-02-21T13:03:43;16.00;;;4.00;;
15748;SDS011;7976;52.526;13.326;2024-02-21T13:06:11;12.27;;;3.83;;
15748;SDS011;7976;52.526;13.326;2024-02-21T13:08:40;12.23;;;3.53;;
15748;SDS011;7976;52.526;13.326;2024-02-21T13:11:09;12.13;;;4.20;;
15748;SDS011;7976;52.526;13.326;2024-02-21T13:13:36;11.25;;;3.58;;
15748;SDS011;7976;52.526;13.326;2024-02-21T13:16:03;11.38;;;3.50;;
15748;SDS011;7976;52.526;13.326;2024-02-21T13:18:31;12.77;;;3.17;;
15748;SDS011;7976;52.526;13.326;2024-02-21T13:20:58;10.02;;;3.00;;
15748;SDS011;7976;52.526;13.326;2024-02-21T13:23:26;11.13;;;3.42;;
15748;SDS011;7976;52.526;13.326;2024-02-21T13:25:54;10.43;;;3.40;;
15748;SDS011;7976;52.526;13.326;2024-02-21T13:28:21;15.35;;;4.68;;
15748;SDS011;7976;52.526;13.326;2024-02-21T13:30:47;14.18;;;4.40;;
15748;SDS011;7976;52.526;13.326;2024-02-21T13:33:15;13.30;;;3.95;;
15748;SDS011;7976;52.526;13.326;2024-02-21T13:35:42;10.15;;;3.15;;
15748;SDS011;7976;52.526;13.326;2024-02-21T13:38:09;11.32;;;3.70;;
15748;SDS011;7976;52.526;13.326;2024-02-21T13:40:37;13.80;;;4.15;;
15748;SDS011;7976;52.526;13.326;2024-02-21T13:43:05;13.02;;;3.28;;
15748;SDS011;7976;52.526;13.326;2024-02-21T13:45:32;11.45;;;3.42;;
15748;SDS011;7976;52.526;13.326;2024-02-21T13:47:59;14.73;;;3.65;;
15748;SDS011;7976;52.526;13.326;2024-02-21T13:50:29;12.02;;;3.22;;
15748;SDS011;7976;52.526;13.326;2024-02-21T13:52:57;11.25;;;3.80;;
15748;SDS011;7976;52.526;13.326;2024-02-21T13:55:24;11.25;;;3.63;;
15748;SDS011;7976;52.526;13.326;2024-02-21T13:57:52;11.75;;;3.22;;
15748;SDS011;7976;52.526;13.326;2024-02-21T14:00:20;12.35;;;3.90;;
15748;SDS011;7976;52.526;13.326;2024-02-21T14:02:47;12.57;;;3.55;;
15748;SDS011;7976;52.526;13.326;2024-02-21T14:05:14;12.13;;;3.95;;
15748;SDS011;7976;52.526;13.326;2024-02-21T14:07:41;11.63;;;3.60;;
15748;SDS011;7976;52.526;13.326;2024-02-21T14:10:08;9.43;;;2.97;;
15748;SDS011;7976;52.526;13.326;2024-02-21T14:12:35;13.25;;;3.15;;
15748;SDS011;7976;52.526;13.326;2024-02-21T14:15:05;9.40;;;2.80;;
15748;SDS011;7976;52.526;13.326;2024-02-21T14:17:35;10.13;;;3.53;;
15748;SDS011;7976;52.526;13.326;2024-02-21T14:20:04;11.35;;;3.50;;
15748;SDS011;7976;52.526;13.326;2024-02-21T14:22:33;11.77;;;3.40;;
15748;SDS011;7976;52.526;13.326;2024-02-21T14:25:02;11.77;;;3.25;;
15748;SDS011;7976;52.526;13.326;2024-02-21T14:27:30;7.32;;;2.75;;
15748;SDS011;7976;52.526;13.326;2024-02-21T14:29:57;11.70;;;3.05;;
15748;SDS011;7976;52.526;13.326;2024-02-21T14:32:24;9.88;;;3.17;;
15748;SDS011;7976;52.526;13.326;2024-02-21T14:34:52;9.55;;;3.00;;
15748;SDS011;7976;52.526;13.326;2024-02-21T14:37:19;12.10;;;2.92;;
15748;SDS011;7976;52.526;13.326;2024-02-21T14:39:46;11.57;;;3.15;;
15748;SDS011;7976;52.526;13.326;2024-02-21T14:42:13;13.43;;;3.10;;
15748;SDS011;7976;52.526;13.326;2024-02-21T14:44:40;8.85;;;3.05;;
15748;SDS011;7976;52.526;13.326;2024-02-21T14:47:07;11.13;;;3.08;;
15748;SDS011;7976;52.526;13.326;2024-02-21T14:49:34;8.20;;;2.88;;
15748;SDS011;7976;52.526;13.326;2024-02-21T14:52:02;11.18;;;2.70;;
15748;SDS011;7976;52.526;13.326;2024-02-21T14:54:29;9.82;;;2.72;;
15748;SDS011;7976;52.526;13.326;2024-02-21T14:56:56;10.02;;;2.60;;